sensor_id;sensor_type;location;lat;lon;timestamp;pressure;altitude;pressure_sealevel;temperature;humidity
75219;BME280;63801;49.414;19.474;2022-11-20T00:00:25;93282.41;;;-2.00;73.20
75219;BME280;63801;49.414;19.474;2022-11-20T00:02:25;93279.47;;;-1.98;73.09
75219;BME280;63801;49.414;19.474;2022-11-20T00:04:26;93282.88;;;-1.98;73.01
75219;BME280;63801;49.414;19.474;2022-11-20T00:06:27;93284.25;;;-2.00;73.24
75219;BME280;63801;49.414;19.474;2022-11-20T00:08:27;93286.09;;;-2.01;73.17
75219;BME280;63801;49.414;19.474;2022-11-20T00:10:28;93296.66;;;-2.01;73.12
75219;BME280;63801;49.414;19.474;2022-11-20T00:12:28;93289.53;;;-2.00;73.29
75219;BME280;63801;49.414;19.474;2022-11-20T00:14:28;93289.53;;;-2.00;73.32
75219;BME280;63801;49.414;19.474;2022-11-20T00:16:31;93284.53;;;-2.02;73.16
75219;BME280;63801;49.414;19.474;2022-11-20T00:18:34;93296.94;;;-2.02;73.14
75219;BME280;63801;49.414;19.474;2022-11-20T00:20:35;93293.34;;;-2.11;73.46
75219;BME280;63801;49.414;19.474;2022-11-20T00:22:35;93308.28;;;-2.02;73.53
75219;BME280;63801;49.414;19.474;2022-11-20T00:24:35;93294.06;;;-2.06;73.18
75219;BME280;63801;49.414;19.474;2022-11-20T00:26:36;93287.94;;;-2.01;73.55
75219;BME280;63801;49.414;19.474;2022-11-20T00:28:36;93288.00;;;-2.06;73.25
75219;BME280;63801;49.414;19.474;2022-11-20T00:30:37;93301.09;;;-1.96;73.40
75219;BME280;63801;49.414;19.474;2022-11-20T00:32:37;93306.06;;;-1.95;73.47
75219;BME280;63801;49.414;19.474;2022-11-20T00:34:37;93295.59;;;-2.00;73.38
75219;BME280;63801;49.414;19.474;2022-11-20T00:36:38;93302.38;;;-1.94;73.39
75219;BME280;63801;49.414;19.474;2022-11-20T00:38:38;93286.88;;;-2.00;73.12
75219;BME280;63801;49.414;19.474;2022-11-20T00:40:38;93293.19;;;-1.96;73.08
75219;BME280;63801;49.414;19.474;2022-11-20T00:42:39;93291.59;;;-1.97;73.42
75219;BME280;63801;49.414;19.474;2022-11-20T00:44:39;93297.94;;;-1.98;73.40
75219;BME280;63801;49.414;19.474;2022-11-20T00:46:39;93302.16;;;-1.97;73.08
75219;BME280;63801;49.414;19.474;2022-11-20T00:48:40;93305.59;;;-1.97;73.24
75219;BME280;63801;49.414;19.474;2022-11-20T00:50:41;93304.00;;;-1.98;73.09
75219;BME280;63801;49.414;19.474;2022-11-20T00:52:41;93284.88;;;-2.08;73.22
75219;BME280;63801;49.414;19.474;2022-11-20T00:54:41;93280.59;;;-2.04;73.39
75219;BME280;63801;49.414;19.474;2022-11-20T00:56:42;93279.81;;;-2.05;73.26
75219;BME280;63801;49.414;19.474;2022-11-20T00:58:44;93273.75;;;-2.05;73.17
75219;BME280;63801;49.414;19.474;2022-11-20T01:00:45;93276.66;;;-2.07;73.36
75219;BME280;63801;49.414;19.474;2022-11-20T01:02:45;93281.66;;;-2.05;73.07
75219;BME280;63801;49.414;19.474;2022-11-20T01:04:45;93288.78;;;-2.06;73.30
75219;BME280;63801;49.414;19.474;2022-11-20T01:06:46;93281.94;;;-2.07;73.08
75219;BME280;63801;49.414;19.474;2022-11-20T01:08:47;93262.50;;;-2.16;73.25
75219;BME280;63801;49.414;19.474;2022-11-20T01:10:47;93278.81;;;-2.09;73.40
75219;BME280;63801;49.414;19.474;2022-11-20T01:12:47;93282.72;;;-2.06;73.39
75219;BME280;63801;49.414;19.474;2022-11-20T01:15:08;93281.16;;;-2.07;73.25
75219;BME280;63801;49.414;19.474;2022-11-20T01:17:08;93276.44;;;-2.10;73.48
75219;BME280;63801;49.414;19.474;2022-11-20T01:19:15;93281.66;;;-2.05;73.50
75219;BME280;63801;49.414;19.474;2022-11-20T01:21:22;93282.16;;;-2.03;73.44
75219;BME280;63801;49.414;19.474;2022-11-20T01:23:22;93285.81;;;-1.99;73.64
75219;BME280;63801;49.414;19.474;2022-11-20T01:25:22;93279.97;;;-1.96;73.20
75219;BME280;63801;49.414;19.474;2022-11-20T01:27:23;93265.75;;;-2.00;73.53
75219;BME280;63801;49.414;19.474;2022-11-20T01:29:24;93259.13;;;-1.98;73.73
75219;BME280;63801;49.414;19.474;2022-11-20T01:31:25;93273.47;;;-1.85;73.51
75219;BME280;63801;49.414;19.474;2022-11-20T01:33:26;93279.78;;;-1.81;73.47
75219;BME280;63801;49.414;19.474;2022-11-20T01:35:27;93282.34;;;-1.76;73.66
75219;BME280;63801;49.414;19.474;2022-11-20T01:37:27;93276.53;;;-1.73;73.57
75219;BME280;63801;49.414;19.474;2022-11-20T01:39:27;93270.44;;;-1.73;73.54
75219;BME280;63801;49.414;19.474;2022-11-20T01:41:29;93263.59;;;-1.74;73.42
75219;BME280;63801;49.414;19.474;2022-11-20T01:43:49;93261.22;;;-1.76;73.50
75219;BME280;63801;49.414;19.474;2022-11-20T01:45:56;93272.31;;;-1.74;73.63
75219;BME280;63801;49.414;19.474;2022-11-20T01:47:57;93272.78;;;-1.72;73.58
75219;BME280;63801;49.414;19.474;2022-11-20T01:52:19;93272.25;;;-1.69;73.65
75219;BME280;63801;49.414;19.474;2022-11-20T01:54:27;93255.72;;;-1.79;73.64
75219;BME280;63801;49.414;19.474;2022-11-20T01:56:31;93274.38;;;-1.71;73.80
75219;BME280;63801;49.414;19.474;2022-11-20T01:58:39;93287.31;;;-1.69;73.53
75219;BME280;63801;49.414;19.474;2022-11-20T02:00:42;93278.31;;;-1.68;73.68
75219;BME280;63801;49.414;19.474;2022-11-20T02:02:48;93272.50;;;-1.70;73.72
75219;BME280;63801;49.414;19.474;2022-11-20T02:04:54;93280.09;;;-1.64;73.72
75219;BME280;63801;49.414;19.474;2022-11-20T02:07:01;93272.94;;;-1.63;73.71
75219;BME280;63801;49.414;19.474;2022-11-20T02:09:02;93251.66;;;-1.72;73.72
75219;BME280;63801;49.414;19.474;2022-11-20T02:11:02;93273.94;;;-1.59;73.71
75219;BME280;63801;49.414;19.474;2022-11-20T02:13:03;93279.75;;;-1.57;73.97
75219;BME280;63801;49.414;19.474;2022-11-20T02:15:22;93284.44;;;-1.54;73.76
75219;BME280;63801;49.414;19.474;2022-11-20T02:17:24;93280.47;;;-1.52;73.75
75219;BME280;63801;49.414;19.474;2022-11-20T02:19:31;93287.34;;;-1.51;73.76
75219;BME280;63801;49.414;19.474;2022-11-20T02:21:47;93287.81;;;-1.49;73.87
75219;BME280;63801;49.414;19.474;2022-11-20T02:24:00;93283.09;;;-1.52;73.86
75219;BME280;63801;49.414;19.474;2022-11-20T02:26:03;93277.25;;;-1.49;73.75
75219;BME280;63801;49.414;19.474;2022-11-20T02:28:06;93278.31;;;-1.50;73.65
75219;BME280;63801;49.414;19.474;2022-11-20T02:30:07;93283.31;;;-1.48;73.60
75219;BME280;63801;49.414;19.474;2022-11-20T02:32:20;93270.91;;;-1.48;73.70
75219;BME280;63801;49.414;19.474;2022-11-20T02:34:21;93277.25;;;-1.49;73.69
75219;BME280;63801;49.414;19.474;2022-11-20T02:36:21;93271.53;;;-1.56;73.75
75219;BME280;63801;49.414;19.474;2022-11-20T02:38:22;93259.19;;;-1.60;73.60
75219;BME280;63801;49.414;19.474;2022-11-20T02:40:22;93263.81;;;-1.52;73.50
75219;BME280;63801;49.414;19.474;2022-11-20T02:42:23;93252.03;;;-1.60;74.25
75219;BME280;63801;49.414;19.474;2022-11-20T02:44:23;93259.41;;;-1.57;73.32
75219;BME280;63801;49.414;19.474;2022-11-20T02:46:23;93265.94;;;-1.54;73.51
75219;BME280;63801;49.414;19.474;2022-11-20T02:48:24;93269.69;;;-1.55;73.50
75219;BME280;63801;49.414;19.474;2022-11-20T02:50:24;93269.38;;;-1.54;73.66
75219;BME280;63801;49.414;19.474;2022-11-20T02:52:25;93262.53;;;-1.55;73.46
75219;BME280;63801;49.414;19.474;2022-11-20T02:54:26;93249.94;;;-1.63;73.90
75219;BME280;63801;49.414;19.474;2022-11-20T02:56:26;93264.09;;;-1.54;73.60
75219;BME280;63801;49.414;19.474;2022-11-20T02:58:27;93256.16;;;-1.54;73.91
75219;BME280;63801;49.414;19.474;2022-11-20T03:00:27;93235.47;;;-1.65;73.71
75219;BME280;63801;49.414;19.474;2022-11-20T03:02:31;93259.59;;;-1.53;73.51
75219;BME280;63801;49.414;19.474;2022-11-20T03:04:31;93252.47;;;-1.53;73.83
75219;BME280;63801;49.414;19.474;2022-11-20T03:06:31;93264.59;;;-1.52;73.72
75219;BME280;63801;49.414;19.474;2022-11-20T03:08:32;93262.25;;;-1.53;73.74
75219;BME280;63801;49.414;19.474;2022-11-20T03:10:32;93267.53;;;-1.53;73.91
75219;BME280;63801;49.414;19.474;2022-11-20T03:12:32;93271.53;;;-1.56;73.76
75219;BME280;63801;49.414;19.474;2022-11-20T03:14:33;93270.16;;;-1.53;73.90
75219;BME280;63801;49.414;19.474;2022-11-20T03:16:34;93266.47;;;-1.52;73.60
75219;BME280;63801;49.414;19.474;2022-11-20T03:18:34;93266.25;;;-1.56;73.68
75219;BME280;63801;49.414;19.474;2022-11-20T03:20:35;93257.81;;;-1.58;73.67
75219;BME280;63801;49.414;19.474;2022-11-20T03:22:35;93254.97;;;-1.61;73.79
75219;BME280;63801;49.414;19.474;2022-11-20T03:24:35;93256.81;;;-1.62;73.48
75219;BME280;63801;49.414;19.474;2022-11-20T03:26:36;93254.75;;;-1.65;73.78
75219;BME280;63801;49.414;19.474;2022-11-20T03:28:36;93246.38;;;-1.72;73.89
75219;BME280;63801;49.414;19.474;2022-11-20T03:30:37;93257.19;;;-1.68;73.67
75219;BME280;63801;49.414;19.474;2022-11-20T03:32:37;93254.81;;;-1.70;73.54
75219;BME280;63801;49.414;19.474;2022-11-20T03:34:37;93259.09;;;-1.74;73.78
75219;BME280;63801;49.414;19.474;2022-11-20T03:36:42;93253.81;;;-1.74;73.74
75219;BME280;63801;49.414;19.474;2022-11-20T03:38:42;93253.81;;;-1.74;73.97
75219;BME280;63801;49.414;19.474;2022-11-20T03:40:43;93251.97;;;-1.73;73.97
75219;BME280;63801;49.414;19.474;2022-11-20T03:42:43;93243.38;;;-1.84;73.91
75219;BME280;63801;49.414;19.474;2022-11-20T03:44:46;93243.88;;;-1.82;73.96
75219;BME280;63801;49.414;19.474;2022-11-20T03:46:47;93254.59;;;-1.73;74.01
75219;BME280;63801;49.414;19.474;2022-11-20T03:48:47;93250.66;;;-1.76;74.00
75219;BME280;63801;49.414;19.474;2022-11-20T03:50:48;93248.75;;;-1.70;73.96
75219;BME280;63801;49.414;19.474;2022-11-20T03:52:48;93251.66;;;-1.72;74.15
75219;BME280;63801;49.414;19.474;2022-11-20T03:54:48;93252.66;;;-1.68;73.87
75219;BME280;63801;49.414;19.474;2022-11-20T03:56:49;93245.25;;;-1.66;74.16
75219;BME280;63801;49.414;19.474;2022-11-20T03:58:49;93248.41;;;-1.64;74.09
75219;BME280;63801;49.414;19.474;2022-11-20T04:00:50;93247.81;;;-1.61;74.25
75219;BME280;63801;49.414;19.474;2022-11-20T04:02:50;93247.53;;;-1.59;74.01
75219;BME280;63801;49.414;19.474;2022-11-20T04:04:50;93248.81;;;-1.57;74.08
75219;BME280;63801;49.414;19.474;2022-11-20T04:06:51;93248.25;;;-1.54;74.02
75219;BME280;63801;49.414;19.474;2022-11-20T04:08:51;93242.09;;;-1.49;74.19
75219;BME280;63801;49.414;19.474;2022-11-20T04:10:53;93238.91;;;-1.46;74.04
75219;BME280;63801;49.414;19.474;2022-11-20T04:12:53;93232.38;;;-1.54;74.09
75219;BME280;63801;49.414;19.474;2022-11-20T04:14:54;93245.66;;;-1.40;74.32
75219;BME280;63801;49.414;19.474;2022-11-20T04:16:54;93244.94;;;-1.46;74.21
75219;BME280;63801;49.414;19.474;2022-11-20T04:18:58;93246.38;;;-1.34;74.42
75219;BME280;63801;49.414;19.474;2022-11-20T04:20:59;93247.66;;;-1.32;74.48
75219;BME280;63801;49.414;19.474;2022-11-20T04:22:59;93236.81;;;-1.30;74.13
75219;BME280;63801;49.414;19.474;2022-11-20T04:25:00;93240.53;;;-1.31;74.15
75219;BME280;63801;49.414;19.474;2022-11-20T04:27:00;93243.88;;;-1.26;74.16
75219;BME280;63801;49.414;19.474;2022-11-20T04:29:00;93240.97;;;-1.24;74.21
75219;BME280;63801;49.414;19.474;2022-11-20T04:31:06;93240.19;;;-1.25;73.89
75219;BME280;63801;49.414;19.474;2022-11-20T04:33:07;93249.09;;;-1.21;74.13
75219;BME280;63801;49.414;19.474;2022-11-20T04:35:07;93240.38;;;-1.21;74.27
75219;BME280;63801;49.414;19.474;2022-11-20T04:37:08;93239.31;;;-1.20;74.43
75219;BME280;63801;49.414;19.474;2022-11-20T04:39:12;93239.00;;;-1.19;74.33
75219;BME280;63801;49.414;19.474;2022-11-20T04:41:18;93244.00;;;-1.17;74.09
75219;BME280;63801;49.414;19.474;2022-11-20T04:43:18;93244.28;;;-1.19;74.15
75219;BME280;63801;49.414;19.474;2022-11-20T04:45:19;93240.38;;;-1.21;74.16
75219;BME280;63801;49.414;19.474;2022-11-20T04:47:19;93239.88;;;-1.23;74.47
75219;BME280;63801;49.414;19.474;2022-11-20T04:49:20;93228.38;;;-1.32;74.43
75219;BME280;63801;49.414;19.474;2022-11-20T04:51:20;93217.78;;;-1.32;74.52
75219;BME280;63801;49.414;19.474;2022-11-20T04:53:22;93225.97;;;-1.29;74.50
75219;BME280;63801;49.414;19.474;2022-11-20T04:55:22;93219.31;;;-1.26;74.66
75219;BME280;63801;49.414;19.474;2022-11-20T04:57:22;93218.22;;;-1.25;74.34
75219;BME280;63801;49.414;19.474;2022-11-20T04:59:23;93216.84;;;-1.23;74.74
75219;BME280;63801;49.414;19.474;2022-11-20T05:01:24;93209.25;;;-1.24;74.55
75219;BME280;63801;49.414;19.474;2022-11-20T05:03:24;93204.94;;;-1.20;74.55
75219;BME280;63801;49.414;19.474;2022-11-20T05:05:25;93208.06;;;-1.18;74.60
75219;BME280;63801;49.414;19.474;2022-11-20T05:07:25;93210.44;;;-1.17;74.47
75219;BME280;63801;49.414;19.474;2022-11-20T05:09:25;93213.28;;;-1.13;74.65
75219;BME280;63801;49.414;19.474;2022-11-20T05:11:26;93203.50;;;-1.13;74.67
75219;BME280;63801;49.414;19.474;2022-11-20T05:13:29;93195.28;;;-1.11;74.52
75219;BME280;63801;49.414;19.474;2022-11-20T05:15:29;93192.13;;;-1.13;74.45
75219;BME280;63801;49.414;19.474;2022-11-20T05:17:29;93189.47;;;-1.13;74.53
75219;BME280;63801;49.414;19.474;2022-11-20T05:19:30;93196.16;;;-1.16;74.59
75219;BME280;63801;49.414;19.474;2022-11-20T05:21:31;93200.13;;;-1.18;74.83
75219;BME280;63801;49.414;19.474;2022-11-20T05:23:32;93201.78;;;-1.22;74.36
75219;BME280;63801;49.414;19.474;2022-11-20T05:25:33;93201.78;;;-1.22;74.45
75219;BME280;63801;49.414;19.474;2022-11-20T05:27:33;93210.78;;;-1.23;74.97
75219;BME280;63801;49.414;19.474;2022-11-20T05:29:34;93212.38;;;-1.22;74.67
75219;BME280;63801;49.414;19.474;2022-11-20T05:31:34;93202.16;;;-1.29;74.98
75219;BME280;63801;49.414;19.474;2022-11-20T05:33:35;93212.56;;;-1.19;74.71
75219;BME280;63801;49.414;19.474;2022-11-20T05:35:36;93199.84;;;-1.17;74.78
75219;BME280;63801;49.414;19.474;2022-11-20T05:37:36;93212.00;;;-1.16;74.93
75219;BME280;63801;49.414;19.474;2022-11-20T05:39:36;93208.50;;;-1.11;74.71
75219;BME280;63801;49.414;19.474;2022-11-20T05:41:37;93208.19;;;-1.10;74.91
75219;BME280;63801;49.414;19.474;2022-11-20T05:43:43;93198.91;;;-1.07;74.80
75219;BME280;63801;49.414;19.474;2022-11-20T05:45:53;93197.25;;;-1.03;74.87
75219;BME280;63801;49.414;19.474;2022-11-20T05:47:57;93198.03;;;-1.03;75.15
75219;BME280;63801;49.414;19.474;2022-11-20T05:49:58;93204.81;;;-0.97;74.78
75219;BME280;63801;49.414;19.474;2022-11-20T05:51:58;93179.41;;;-1.11;74.81
75219;BME280;63801;49.414;19.474;2022-11-20T05:53:59;93197.66;;;-0.96;74.96
75219;BME280;63801;49.414;19.474;2022-11-20T05:56:08;93202.38;;;-0.93;74.74
75219;BME280;63801;49.414;19.474;2022-11-20T05:58:09;93198.34;;;-0.91;74.76
75219;BME280;63801;49.414;19.474;2022-11-20T06:00:10;93193.53;;;-0.88;74.76
75219;BME280;63801;49.414;19.474;2022-11-20T06:02:11;93184.84;;;-0.89;75.02
75219;BME280;63801;49.414;19.474;2022-11-20T06:04:11;93156.50;;;-1.02;74.51
75219;BME280;63801;49.414;19.474;2022-11-20T06:06:12;93186.81;;;-0.81;75.04
75219;BME280;63801;49.414;19.474;2022-11-20T06:08:13;93182.31;;;-0.80;74.78
75219;BME280;63801;49.414;19.474;2022-11-20T06:10:13;93176.72;;;-0.79;74.67
75219;BME280;63801;49.414;19.474;2022-11-20T06:12:14;93159.16;;;-0.88;74.96
75219;BME280;63801;49.414;19.474;2022-11-20T06:14:14;93177.69;;;-0.75;74.75
75219;BME280;63801;49.414;19.474;2022-11-20T06:16:16;93154.09;;;-0.85;74.82
75219;BME280;63801;49.414;19.474;2022-11-20T06:18:17;93163.91;;;-0.72;74.93
75219;BME280;63801;49.414;19.474;2022-11-20T06:20:17;93162.81;;;-0.71;74.88
75219;BME280;63801;49.414;19.474;2022-11-20T06:22:18;93166.47;;;-0.67;74.80
75219;BME280;63801;49.414;19.474;2022-11-20T06:24:18;93151.34;;;-0.80;74.69
75219;BME280;63801;49.414;19.474;2022-11-20T06:26:21;93173.31;;;-0.66;74.83
75219;BME280;63801;49.414;19.474;2022-11-20T06:28:21;93176.44;;;-0.64;74.89
75219;BME280;63801;49.414;19.474;2022-11-20T06:30:22;93171.75;;;-0.67;74.81
75219;BME280;63801;49.414;19.474;2022-11-20T06:32:22;93177.72;;;-0.61;74.69
75219;BME280;63801;49.414;19.474;2022-11-20T06:34:22;93171.34;;;-0.60;75.08
75219;BME280;63801;49.414;19.474;2022-11-20T06:36:23;93171.44;;;-0.65;74.76
75219;BME280;63801;49.414;19.474;2022-11-20T06:38:24;93186.44;;;-0.61;74.57
75219;BME280;63801;49.414;19.474;2022-11-20T06:40:24;93184.31;;;-0.59;74.72
75219;BME280;63801;49.414;19.474;2022-11-20T06:42:25;93185.09;;;-0.58;74.60
75219;BME280;63801;49.414;19.474;2022-11-20T06:44:25;93170.97;;;-0.67;74.77
75219;BME280;63801;49.414;19.474;2022-11-20T06:46:29;93170.56;;;-0.61;74.84
75219;BME280;63801;49.414;19.474;2022-11-20T06:48:29;93180.00;;;-0.55;74.74
75219;BME280;63801;49.414;19.474;2022-11-20T06:50:30;93184.31;;;-0.45;74.81
75219;BME280;63801;49.414;19.474;2022-11-20T06:52:30;93175.50;;;-0.40;75.06
75219;BME280;63801;49.414;19.474;2022-11-20T06:54:30;93185.47;;;-0.37;74.73
75219;BME280;63801;49.414;19.474;2022-11-20T06:56:30;93170.66;;;-0.38;75.04
75219;BME280;63801;49.414;19.474;2022-11-20T06:58:33;93169.00;;;-0.48;74.91
75219;BME280;63801;49.414;19.474;2022-11-20T07:00:33;93179.22;;;-0.41;74.75
75219;BME280;63801;49.414;19.474;2022-11-20T07:02:34;93180.88;;;-0.46;74.83
75219;BME280;63801;49.414;19.474;2022-11-20T07:04:34;93184.31;;;-0.45;74.74
75219;BME280;63801;49.414;19.474;2022-11-20T07:06:34;93174.28;;;-0.48;74.89
75219;BME280;63801;49.414;19.474;2022-11-20T07:08:35;93183.91;;;-0.38;75.17
75219;BME280;63801;49.414;19.474;2022-11-20T07:10:35;93189.13;;;-0.33;74.88
75219;BME280;63801;49.414;19.474;2022-11-20T07:12:36;93191.66;;;-0.28;75.17
75219;BME280;63801;49.414;19.474;2022-11-20T07:14:36;93173.59;;;-0.26;75.31
75219;BME280;63801;49.414;19.474;2022-11-20T07:16:36;93182.44;;;-0.17;75.13
75219;BME280;63801;49.414;19.474;2022-11-20T07:18:37;93180.75;;;-0.13;75.22
75219;BME280;63801;49.414;19.474;2022-11-20T07:20:37;93167.63;;;-0.18;74.88
75219;BME280;63801;49.414;19.474;2022-11-20T07:22:38;93180.09;;;-0.05;74.92
75219;BME280;63801;49.414;19.474;2022-11-20T07:24:38;93181.94;;;-0.06;75.02
75219;BME280;63801;49.414;19.474;2022-11-20T07:26:39;93166.63;;;-0.09;75.09
75219;BME280;63801;49.414;19.474;2022-11-20T07:28:39;93185.03;;;0.10;75.05
75219;BME280;63801;49.414;19.474;2022-11-20T07:30:39;93185.72;;;0.16;75.18
75219;BME280;63801;49.414;19.474;2022-11-20T07:32:39;93181.13;;;0.21;75.01
75219;BME280;63801;49.414;19.474;2022-11-20T07:34:40;93182.09;;;0.25;74.97
75219;BME280;63801;49.414;19.474;2022-11-20T07:36:40;93192.09;;;0.28;74.79
75219;BME280;63801;49.414;19.474;2022-11-20T07:38:40;93186.19;;;0.31;74.71
75219;BME280;63801;49.414;19.474;2022-11-20T07:40:41;93179.34;;;0.30;74.58
75219;BME280;63801;49.414;19.474;2022-11-20T07:42:51;93185.72;;;0.29;74.75
75219;BME280;63801;49.414;19.474;2022-11-20T07:44:52;93182.56;;;0.27;74.36
75219;BME280;63801;49.414;19.474;2022-11-20T07:46:52;93187.22;;;0.22;74.60
75219;BME280;63801;49.414;19.474;2022-11-20T07:48:52;93184.56;;;0.22;74.71
75219;BME280;63801;49.414;19.474;2022-11-20T07:50:54;93188.47;;;0.24;74.52
75219;BME280;63801;49.414;19.474;2022-11-20T07:53:02;93190.72;;;0.31;74.69
75219;BME280;63801;49.414;19.474;2022-11-20T07:55:03;93188.63;;;0.41;75.07
75219;BME280;63801;49.414;19.474;2022-11-20T07:57:03;93186.72;;;0.56;75.29
75219;BME280;63801;49.414;19.474;2022-11-20T07:59:03;93191.34;;;0.72;75.37
75219;BME280;63801;49.414;19.474;2022-11-20T08:01:06;93184.03;;;0.92;75.34
75219;BME280;63801;49.414;19.474;2022-11-20T08:03:07;93181.03;;;1.15;75.58
75219;BME280;63801;49.414;19.474;2022-11-20T08:05:08;93168.53;;;1.47;75.78
75219;BME280;63801;49.414;19.474;2022-11-20T08:07:09;93166.13;;;2.07;76.29
75219;BME280;63801;49.414;19.474;2022-11-20T08:09:09;93153.00;;;2.79;76.33
75219;BME280;63801;49.414;19.474;2022-11-20T08:11:09;93188.25;;;3.66;75.54
75219;BME280;63801;49.414;19.474;2022-11-20T08:13:28;93176.88;;;4.24;74.16
75219;BME280;63801;49.414;19.474;2022-11-20T08:15:49;93179.78;;;4.60;71.96
75219;BME280;63801;49.414;19.474;2022-11-20T08:18:02;93174.81;;;4.91;71.79
75219;BME280;63801;49.414;19.474;2022-11-20T08:20:03;93182.25;;;5.07;71.01
75219;BME280;63801;49.414;19.474;2022-11-20T08:22:03;93182.91;;;5.04;70.27
75219;BME280;63801;49.414;19.474;2022-11-20T08:24:04;93162.59;;;4.90;70.74
75219;BME280;63801;49.414;19.474;2022-11-20T08:26:05;93176.50;;;4.96;70.29
75219;BME280;63801;49.414;19.474;2022-11-20T08:28:08;93172.81;;;4.88;70.51
75219;BME280;63801;49.414;19.474;2022-11-20T08:30:09;93180.47;;;4.78;70.08
75219;BME280;63801;49.414;19.474;2022-11-20T08:32:10;93178.22;;;4.59;68.42
75219;BME280;63801;49.414;19.474;2022-11-20T08:34:10;93183.53;;;4.38;69.80
75219;BME280;63801;49.414;19.474;2022-11-20T08:36:10;93183.50;;;4.18;68.91
75219;BME280;63801;49.414;19.474;2022-11-20T08:38:11;93179.69;;;3.98;69.69
75219;BME280;63801;49.414;19.474;2022-11-20T08:40:11;93173.16;;;3.78;69.66
75219;BME280;63801;49.414;19.474;2022-11-20T08:42:12;93179.19;;;3.67;69.71
75219;BME280;63801;49.414;19.474;2022-11-20T08:44:12;93174.47;;;3.63;71.08
75219;BME280;63801;49.414;19.474;2022-11-20T08:46:12;93161.31;;;3.58;71.13
75219;BME280;63801;49.414;19.474;2022-11-20T08:48:13;93165.69;;;3.72;71.29
75219;BME280;63801;49.414;19.474;2022-11-20T08:50:14;93179.34;;;3.99;71.95
75219;BME280;63801;49.414;19.474;2022-11-20T08:52:15;93165.97;;;4.37;71.97
75219;BME280;63801;49.414;19.474;2022-11-20T08:54:15;93132.91;;;4.50;71.37
75219;BME280;63801;49.414;19.474;2022-11-20T08:56:17;93154.91;;;4.89;70.99
75219;BME280;63801;49.414;19.474;2022-11-20T08:58:18;93140.03;;;5.00;70.42
75219;BME280;63801;49.414;19.474;2022-11-20T09:00:18;93136.97;;;5.10;69.76
75219;BME280;63801;49.414;19.474;2022-11-20T09:02:18;93138.25;;;5.25;69.13
75219;BME280;63801;49.414;19.474;2022-11-20T09:04:19;93145.28;;;5.29;69.04
75219;BME280;63801;49.414;19.474;2022-11-20T09:06:19;93145.72;;;5.31;68.68
75219;BME280;63801;49.414;19.474;2022-11-20T09:08:19;93144.41;;;5.37;68.55
75219;BME280;63801;49.414;19.474;2022-11-20T09:10:20;93145.88;;;5.47;68.54
75219;BME280;63801;49.414;19.474;2022-11-20T09:12:20;93133.19;;;5.56;68.40
75219;BME280;63801;49.414;19.474;2022-11-20T09:14:20;93136.44;;;5.74;68.23
75219;BME280;63801;49.414;19.474;2022-11-20T09:16:21;93161.13;;;6.04;67.91
75219;BME280;63801;49.414;19.474;2022-11-20T09:18:22;93155.34;;;6.14;67.35
75219;BME280;63801;49.414;19.474;2022-11-20T09:20:22;93150.78;;;6.14;66.97
75219;BME280;63801;49.414;19.474;2022-11-20T09:22:23;93157.81;;;6.19;66.61
75219;BME280;63801;49.414;19.474;2022-11-20T09:24:23;93172.28;;;6.18;66.55
75219;BME280;63801;49.414;19.474;2022-11-20T09:26:23;93160.22;;;6.12;66.53
75219;BME280;63801;49.414;19.474;2022-11-20T09:28:24;93161.47;;;6.14;66.73
75219;BME280;63801;49.414;19.474;2022-11-20T09:30:25;93171.59;;;6.21;66.60
75219;BME280;63801;49.414;19.474;2022-11-20T09:32:25;93166.72;;;6.23;66.49
75219;BME280;63801;49.414;19.474;2022-11-20T09:34:26;93168.28;;;6.24;66.38
75219;BME280;63801;49.414;19.474;2022-11-20T09:36:26;93166.25;;;6.21;66.14
75219;BME280;63801;49.414;19.474;2022-11-20T09:38:26;93171.19;;;6.19;66.38
75219;BME280;63801;49.414;19.474;2022-11-20T09:40:28;93163.94;;;6.19;66.48
75219;BME280;63801;49.414;19.474;2022-11-20T09:45:05;93162.75;;;6.69;66.16
75219;BME280;63801;49.414;19.474;2022-11-20T09:47:23;93166.94;;;6.94;65.13
75219;BME280;63801;49.414;19.474;2022-11-20T09:51:50;93169.13;;;6.52;63.58
75219;BME280;63801;49.414;19.474;2022-11-20T09:54:51;93173.19;;;6.22;63.79
75219;BME280;63801;49.414;19.474;2022-11-20T09:56:34;93171.44;;;5.81;64.20
75219;BME280;63801;49.414;19.474;2022-11-20T09:58:41;93165.38;;;5.48;64.26
75219;BME280;63801;49.414;19.474;2022-11-20T10:00:43;93176.16;;;5.18;64.95
75219;BME280;63801;49.414;19.474;2022-11-20T10:02:55;93156.09;;;4.79;64.89
75219;BME280;63801;49.414;19.474;2022-11-20T10:05:05;93172.41;;;4.57;65.49
75219;BME280;63801;49.414;19.474;2022-11-20T10:07:13;93165.44;;;4.44;66.16
75219;BME280;63801;49.414;19.474;2022-11-20T10:09:25;93172.72;;;4.35;66.73
75219;BME280;63801;49.414;19.474;2022-11-20T10:11:33;93166.22;;;4.24;66.70
75219;BME280;63801;49.414;19.474;2022-11-20T10:18:40;93169.72;;;4.16;67.32
75219;BME280;63801;49.414;19.474;2022-11-20T10:24:44;93167.09;;;3.98;67.40
75219;BME280;63801;49.414;19.474;2022-11-20T10:29:10;93173.22;;;3.61;67.75
75219;BME280;63801;49.414;19.474;2022-11-20T10:31:25;93152.31;;;3.34;67.96
75219;BME280;63801;49.414;19.474;2022-11-20T10:33:32;93162.19;;;3.25;67.95
75219;BME280;63801;49.414;19.474;2022-11-20T10:38:23;93151.91;;;2.97;68.74
75219;BME280;63801;49.414;19.474;2022-11-20T10:40:34;93159.59;;;2.99;69.31
75219;BME280;63801;49.414;19.474;2022-11-20T10:42:50;93150.97;;;2.93;69.98
75219;BME280;63801;49.414;19.474;2022-11-20T10:45:15;93153.78;;;2.97;69.83
75219;BME280;63801;49.414;19.474;2022-11-20T10:47:18;93150.34;;;2.96;70.07
75219;BME280;63801;49.414;19.474;2022-11-20T10:49:19;93157.88;;;2.94;70.12
75219;BME280;63801;49.414;19.474;2022-11-20T10:55:50;93148.03;;;2.78;70.90
75219;BME280;63801;49.414;19.474;2022-11-20T11:00:11;93141.44;;;2.75;70.94
75219;BME280;63801;49.414;19.474;2022-11-20T11:02:23;93143.78;;;2.68;71.20
75219;BME280;63801;49.414;19.474;2022-11-20T11:06:43;93141.13;;;2.77;71.22
75219;BME280;63801;49.414;19.474;2022-11-20T11:08:48;93141.59;;;2.87;71.01
75219;BME280;63801;49.414;19.474;2022-11-20T11:10:54;93143.31;;;2.92;71.00